Time;durP1;ratioP1;P1;durP2;ratioP2;P2;SDS_P1;SDS_P2;PMS_P1;PMS_P2;Temp;Humidity;BMP_temperature;BMP_pressure;BME280_temperature;BME280_humidity;BME280_pressure;Samples;Min_cycle;Max_cycle;Signal;HPM_P1;HPM_P2
2020/12/31 05:19:45;;;;;;;15.93;7.50;;;-2.00;99.90;;;;;;5302438;23;20269;-71
2020/12/31 05:22:12;;;;;;;11.95;6.40;;;-2.00;99.90;;;;;;5009947;28;20092;-70
2020/12/31 05:24:40;;;;;;;14.52;7.03;;;-1.90;99.90;;;;;;5014167;28;20493;-71
2020/12/31 05:27:25;;;;;;;14.32;7.05;;;-1.90;99.90;;;;;;5014226;28;20037;-70
2020/12/31 05:29:57;;;;;;;12.00;6.53;;;-1.90;99.90;;;;;;5014354;28;20029;-70
2020/12/31 05:32:25;;;;;;;13.10;6.20;;;-1.90;99.90;;;;;;5014403;28;20032;-75
2020/12/31 05:34:55;;;;;;;12.15;6.75;;;-1.90;99.90;;;;;;5000231;28;20484;-78
2020/12/31 05:37:22;;;;;;;12.40;6.60;;;-1.80;99.90;;;;;;5014473;28;20038;-76
2020/12/31 05:39:58;;;;;;;12.15;6.68;;;-1.80;99.90;;;;;;5007309;28;20279;-74
2020/12/31 05:42:25;;;;;;;11.10;6.10;;;-1.80;99.90;;;;;;5008811;28;20127;-73
2020/12/31 05:45:12;;;;;;;12.85;6.75;;;-1.40;99.90;;;;;;5013982;28;20021;-74
2020/12/31 05:47:46;;;;;;;12.70;6.40;;;-0.80;99.90;;;;;;5014194;28;20157;-73
2020/12/31 05:50:18;;;;;;;20.52;9.93;;;-1.00;99.90;;;;;;5013774;28;20488;-72
2020/12/31 05:52:44;;;;;;;15.75;8.25;;;-1.20;99.90;;;;;;5001021;28;20037;-76
2020/12/31 05:55:10;;;;;;;25.98;11.70;;;-1.40;99.90;;;;;;5013344;28;20034;-76
2020/12/31 05:57:46;;;;;;;13.07;6.95;;;-1.50;99.90;;;;;;5012326;28;20021;-76
2020/12/31 06:00:24;;;;;;;13.65;6.65;;;-1.60;99.90;;;;;;5011626;28;20033;-75
2020/12/31 06:02:55;;;;;;;14.07;7.38;;;-1.60;99.90;;;;;;5008158;28;20041;-75
2020/12/31 06:05:22;;;;;;;16.35;8.55;;;-1.60;99.90;;;;;;5013309;28;20164;-74
2020/12/31 06:07:51;;;;;;;17.30;8.88;;;-1.60;99.90;;;;;;5013115;28;20018;-74
2020/12/31 06:10:29;;;;;;;30.55;14.82;;;-1.60;99.90;;;;;;5011129;28;20029;-75
2020/12/31 06:13:03;;;;;;;14.30;7.47;;;-1.70;99.90;;;;;;5012587;28;20018;-75
2020/12/31 06:15:34;;;;;;;8.70;5.75;;;-1.60;99.90;;;;;;5005474;28;20120;-75
2020/12/31 06:18:02;;;;;;;11.65;6.18;;;-1.70;99.90;;;;;;4994470;28;20041;-75
2020/12/31 06:20:30;;;;;;;11.27;5.82;;;-1.70;99.90;;;;;;5011141;28;20503;-75
2020/12/31 06:23:06;;;;;;;10.85;5.47;;;-1.70;99.90;;;;;;5004662;28;20078;-76
2020/12/31 06:25:37;;;;;;;12.77;6.28;;;-1.70;99.90;;;;;;5012437;28;20038;-74
2020/12/31 06:28:07;;;;;;;;;;;-1.80;99.90;;;;;;5003342;28;20038;-77
2020/12/31 06:30:36;;;;;;;12.57;6.55;;;-1.70;99.90;;;;;;5006615;28;20288;-75
2020/12/31 06:33:46;;;;;;;21.30;11.07;;;-1.70;99.90;;;;;;4997055;28;20037;-76
2020/12/31 06:36:12;;;;;;;17.42;8.20;;;-1.60;99.90;;;;;;4994949;28;20271;-79
2020/12/31 06:38:42;;;;;;;21.90;15.52;;;-1.50;99.90;;;;;;5009153;28;20042;-85
2020/12/31 06:41:30;;;;;;;12.73;7.93;;;-1.50;99.90;;;;;;5004023;28;20413;-85
2020/12/31 06:44:06;;;;;;;10.98;5.50;;;-1.60;99.90;;;;;;5008864;28;20023;-85
2020/12/31 06:46:45;;;;;;;9.13;5.40;;;-1.70;99.90;;;;;;4991993;28;20425;-85
2020/12/31 06:49:11;;;;;;;12.05;6.55;;;-1.70;99.90;;;;;;4998952;28;20026;-84
2020/12/31 06:51:37;;;;;;;10.27;5.93;;;-1.70;99.90;;;;;;5011667;28;20088;-74
2020/12/31 06:54:03;;;;;;;9.60;6.20;;;-1.70;99.90;;;;;;5009211;28;20014;-73
2020/12/31 06:56:49;;;;;;;9.55;5.50;;;-1.70;99.90;;;;;;5002763;28;20506;-76
2020/12/31 06:59:25;;;;;;;9.52;5.32;;;-1.70;99.90;;;;;;5008199;28;20505;-75
2020/12/31 07:01:51;;;;;;;9.77;5.90;;;-1.70;99.90;;;;;;5005038;28;20030;-75
2020/12/31 07:04:37;;;;;;;12.20;6.00;;;-1.60;99.90;;;;;;4998782;28;20509;-74
2020/12/31 07:07:18;;;;;;;11.23;5.85;;;-1.60;99.90;;;;;;5000287;28;20124;-75
2020/12/31 07:09:54;;;;;;;9.68;5.47;;;-1.30;99.90;;;;;;4998958;28;20022;-74
2020/12/31 07:12:45;;;;;;;9.63;5.90;;;1.30;99.90;;;;;;5012487;28;20035;-75
2020/12/31 07:15:15;;;;;;;10.63;5.88;;;0.90;99.90;;;;;;5012550;28;20030;-74
2020/12/31 07:17:45;;;;;;;;;;;0.20;99.90;;;;;;4998929;28;20038;-74
2020/12/31 07:20:15;;;;;;;10.02;5.38;;;-0.30;99.90;;;;;;5012089;28;20376;-77
2020/12/31 07:22:42;;;;;;;10.68;6.18;;;-0.70;99.90;;;;;;5010878;28;20030;-77
2020/12/31 07:25:15;;;;;;;11.65;6.25;;;-0.90;99.90;;;;;;5000067;28;20037;-76
2020/12/31 07:27:43;;;;;;;11.52;5.50;;;-1.00;99.90;;;;;;5006694;28;20057;-76
2020/12/31 07:30:10;;;;;;;12.70;5.90;;;-1.10;99.90;;;;;;5011761;28;20034;-79
2020/12/31 07:32:56;;;;;;;22.40;7.38;;;-1.10;99.90;;;;;;5003986;28;20030;-80
2020/12/31 07:35:37;;;;;;;16.52;8.73;;;-0.50;99.90;;;;;;5012264;28;20048;-73
2020/12/31 07:38:12;;;;;;;13.75;7.50;;;-0.20;99.90;;;;;;5000162;28;20022;-75
2020/12/31 07:40:48;;;;;;;8.70;5.93;;;-0.40;99.90;;;;;;5007991;28;20053;-77
2020/12/31 07:43:21;;;;;;;10.77;6.60;;;0.10;99.90;;;;;;5000157;28;20432;-77
2020/12/31 07:45:52;;;;;;;10.57;6.15;;;-0.20;99.90;;;;;;5011958;28;20041;-78
2020/12/31 07:48:19;;;;;;;10.43;5.88;;;-0.40;99.90;;;;;;4998799;28;20022;-78
2020/12/31 07:50:45;;;;;;;8.13;5.32;;;-0.60;99.90;;;;;;4994716;28;20057;-78
2020/12/31 07:53:12;;;;;;;9.57;5.47;;;-0.70;99.90;;;;;;4997321;28;20101;-74
2020/12/31 07:55:38;;;;;;;9.88;5.53;;;-0.80;99.90;;;;;;5011730;28;20033;-74
2020/12/31 07:58:08;;;;;;;10.60;6.22;;;-0.90;99.90;;;;;;5011271;28;20037;-74
2020/12/31 08:00:34;;;;;;;10.38;5.78;;;-0.90;99.90;;;;;;5012504;28;20097;-75
2020/12/31 08:03:00;;;;;;;11.38;5.78;;;-1.00;99.90;;;;;;5012130;28;20406;-78
2020/12/31 08:05:27;;;;;;;9.43;5.57;;;-1.10;99.90;;;;;;5011522;28;20029;-77
2020/12/31 08:07:55;;;;;;;10.98;6.03;;;-1.10;99.90;;;;;;5011503;28;20029;-76
2020/12/31 08:10:22;;;;;;;10.88;5.93;;;-1.10;99.90;;;;;;5011658;28;20026;-77
2020/12/31 08:12:59;;;;;;;9.10;5.63;;;-1.20;99.90;;;;;;5011940;28;20022;-77
2020/12/31 08:15:26;;;;;;;12.27;6.38;;;-1.20;99.90;;;;;;5011734;28;20053;-77
2020/12/31 08:17:57;;;;;;;12.30;6.60;;;-1.20;99.90;;;;;;5011559;28;20097;-86
2020/12/31 08:20:28;;;;;;;;;;;-1.20;99.90;;;;;;5011919;28;20409;-76
2020/12/31 08:22:57;;;;;;;10.65;5.85;;;-1.20;99.90;;;;;;5015205;28;19945;-75
2020/12/31 08:25:32;;;;;;;9.82;5.63;;;-1.20;99.90;;;;;;5015653;28;20088;-75
2020/12/31 08:28:04;;;;;;;11.23;5.63;;;-1.20;99.90;;;;;;5015529;28;20101;-75
2020/12/31 08:30:32;;;;;;;13.20;6.57;;;-1.20;99.90;;;;;;5013530;28;20024;-75
2020/12/31 08:32:58;;;;;;;10.13;5.47;;;-1.30;99.90;;;;;;5015350;28;20151;-74
2020/12/31 08:35:29;;;;;;;19.55;11.80;;;-1.30;99.90;;;;;;5013133;28;20098;-77
2020/12/31 08:38:05;;;;;;;41.30;14.70;;;-1.30;99.90;;;;;;5015387;28;20358;-78
2020/12/31 08:40:32;;;;;;;37.58;16.05;;;-1.30;99.90;;;;;;5011686;28;20038;-76
2020/12/31 08:42:58;;;;;;;15.45;9.35;;;-1.30;99.90;;;;;;5015326;28;20485;-78
2020/12/31 08:45:32;;;;;;;12.32;6.85;;;-1.30;99.90;;;;;;5013878;28;20030;-77
2020/12/31 08:48:16;;;;;;;11.10;6.32;;;-1.30;99.90;;;;;;4998011;28;20092;-77
2020/12/31 08:50:57;;;;;;;10.38;6.35;;;-1.20;99.90;;;;;;5014144;28;20030;-77
2020/12/31 08:53:22;;;;;;;12.60;6.57;;;-1.20;99.90;;;;;;5015059;28;20018;-76
2020/12/31 08:55:48;;;;;;;9.70;6.07;;;-1.20;99.90;;;;;;5015038;28;20076;-77
2020/12/31 08:58:16;;;;;;;11.35;6.47;;;-1.30;99.90;;;;;;5015270;28;20030;-78
2020/12/31 09:00:42;;;;;;;13.85;7.15;;;-1.30;99.90;;;;;;5014768;28;20033;-77
2020/12/31 09:03:08;;;;;;;9.75;5.50;;;-1.30;99.90;;;;;;5013792;28;20077;-77
2020/12/31 09:05:34;;;;;;;11.20;6.47;;;-1.20;99.90;;;;;;5014859;28;20451;-77
2020/12/31 09:08:08;;;;;;;12.57;5.93;;;-1.20;99.90;;;;;;5014743;28;20034;-77
2020/12/31 09:10:37;;;;;;;11.05;6.43;;;-1.30;99.90;;;;;;5013415;28;20018;-77
2020/12/31 09:13:04;;;;;;;11.05;6.00;;;-1.20;99.90;;;;;;5014656;28;20028;-75
2020/12/31 09:15:31;;;;;;;10.13;5.38;;;-1.20;99.90;;;;;;5014980;28;20022;-75
2020/12/31 09:17:57;;;;;;;10.48;5.82;;;-0.70;99.90;;;;;;5014545;28;20053;-73
2020/12/31 09:20:25;;;;;;;7.65;4.90;;;-0.50;99.90;;;;;;5014133;28;20051;-73
2020/12/31 09:22:52;;;;;;;8.73;5.18;;;0.30;99.90;;;;;;5011996;28;20021;-74
2020/12/31 09:25:18;;;;;;;8.27;5.55;;;1.20;99.90;;;;;;5014639;28;20037;-75
2020/12/31 09:27:47;;;;;;;8.07;5.25;;;1.80;99.90;;;;;;5014538;28;20026;-74
2020/12/31 09:30:16;;;;;;;7.38;5.15;;;2.10;99.90;;;;;;5014342;28;20156;-74
2020/12/31 09:32:46;;;;;;;9.35;4.90;;;2.40;99.90;;;;;;5013944;28;20033;-72
2020/12/31 09:35:13;;;;;;;9.52;5.50;;;2.70;99.90;;;;;;5014320;28;20043;-76
2020/12/31 09:37:50;;;;;;;8.80;5.32;;;3.00;99.90;;;;;;5014475;28;20022;-72
2020/12/31 09:40:16;;;;;;;10.32;5.20;;;2.60;99.90;;;;;;5012669;28;20026;-72
2020/12/31 09:42:42;;;;;;;7.45;4.90;;;2.20;99.90;;;;;;5014226;28;20018;-72
2020/12/31 09:45:08;;;;;;;7.57;4.70;;;2.00;99.90;;;;;;5013998;28;20432;-73
2020/12/31 09:47:34;;;;;;;10.73;5.25;;;1.80;99.90;;;;;;5014169;28;20034;-73
2020/12/31 09:49:59;;;;;;;7.25;5.10;;;1.70;99.90;;;;;;5014090;28;20104;-73
2020/12/31 09:52:25;;;;;;;9.50;5.63;;;1.70;99.90;;;;;;5014392;28;20045;-73
2020/12/31 09:54:51;;;;;;;8.85;5.57;;;1.70;99.90;;;;;;5013822;28;20021;-72
2020/12/31 09:57:17;;;;;;;8.82;5.40;;;1.60;99.90;;;;;;5014155;28;20022;-72
2020/12/31 09:59:42;;;;;;;8.88;5.68;;;1.70;99.90;;;;;;5014303;28;20032;-72
2020/12/31 10:02:08;;;;;;;7.95;5.30;;;1.90;99.90;;;;;;5014675;28;20060;-72
2020/12/31 10:04:34;;;;;;;8.07;5.57;;;1.90;99.90;;;;;;5014717;28;20026;-72
2020/12/31 10:07:00;;;;;;;8.75;5.68;;;2.00;99.90;;;;;;5012872;28;20088;-73
2020/12/31 10:09:26;;;;;;;7.57;5.03;;;2.00;99.90;;;;;;5014468;28;20084;-73
2020/12/31 10:11:54;;;;;;;8.75;5.32;;;1.90;99.90;;;;;;5014059;28;20026;-73
2020/12/31 10:14:20;;;;;;;8.90;5.57;;;2.00;99.90;;;;;;5013065;28;20033;-73
2020/12/31 10:16:46;;;;;;;8.15;5.60;;;2.10;99.90;;;;;;5013856;28;20033;-73
2020/12/31 10:19:12;;;;;;;9.52;5.20;;;2.10;99.90;;;;;;5013732;28;20050;-73
2020/12/31 10:21:38;;;;;;;9.32;5.32;;;2.10;99.90;;;;;;5013938;28;20065;-73
2020/12/31 10:24:04;;;;;;;7.70;5.00;;;2.20;99.90;;;;;;5013851;28;20029;-73
2020/12/31 10:26:29;;;;;;;10.18;5.93;;;2.30;99.90;;;;;;5013505;28;20389;-72
2020/12/31 10:28:56;;;;;;;10.13;5.95;;;2.40;99.90;;;;;;5013697;28;20034;-72
2020/12/31 10:31:21;;;;;;;9.57;6.15;;;2.40;99.90;;;;;;5012512;28;20424;-72
2020/12/31 10:33:47;;;;;;;7.65;4.93;;;2.40;99.90;;;;;;5013644;28;20034;-73
2020/12/31 10:36:13;;;;;;;7.03;5.18;;;2.40;99.90;;;;;;5013549;28;20044;-73
2020/12/31 10:38:40;;;;;;;8.38;5.25;;;2.40;99.90;;;;;;5013197;28;20021;-73
2020/12/31 10:41:07;;;;;;;8.35;5.10;;;2.50;99.90;;;;;;5013496;28;20069;-73
2020/12/31 10:43:33;;;;;;;8.43;6.00;;;2.60;99.90;;;;;;5013857;28;20026;-73
2020/12/31 10:45:59;;;;;;;9.23;5.95;;;2.60;99.90;;;;;;5012222;28;20591;-74
2020/12/31 10:48:25;;;;;;;10.18;6.25;;;2.50;99.90;;;;;;5010646;28;20480;-76
2020/12/31 10:50:51;;;;;;;8.05;5.63;;;2.50;99.90;;;;;;5013279;28;20030;-74
2020/12/31 10:53:16;;;;;;;8.93;5.80;;;2.30;99.90;;;;;;5013348;28;20481;-74
2020/12/31 10:55:42;;;;;;;8.95;5.75;;;2.00;99.90;;;;;;5012716;28;20026;-75
2020/12/31 10:58:08;;;;;;;11.05;6.25;;;1.70;99.90;;;;;;5012596;28;20030;-74
2020/12/31 11:00:33;;;;;;;8.75;5.70;;;1.50;99.90;;;;;;5013109;28;20033;-74
2020/12/31 11:02:59;;;;;;;11.15;5.63;;;1.40;99.90;;;;;;5013152;28;20069;-75
2020/12/31 11:05:25;;;;;;;10.40;6.10;;;1.20;99.90;;;;;;5011366;28;20128;-75
2020/12/31 11:07:51;;;;;;;9.25;5.95;;;1.10;99.90;;;;;;5013063;28;20048;-75
2020/12/31 11:10:16;;;;;;;10.90;6.78;;;1.00;99.90;;;;;;5012854;28;20082;-75
2020/12/31 11:12:42;;;;;;;10.20;6.60;;;0.90;99.90;;;;;;5013171;28;20018;-76
2020/12/31 11:15:08;;;;;;;10.48;5.72;;;0.80;99.90;;;;;;5012110;28;20073;-77
2020/12/31 11:17:34;;;;;;;9.95;6.55;;;0.80;99.90;;;;;;5012721;28;20037;-78
2020/12/31 11:20:00;;;;;;;8.82;5.90;;;1.60;99.90;;;;;;5012760;28;20497;-79
2020/12/31 11:22:25;;;;;;;11.63;6.78;;;2.10;99.90;;;;;;5011709;28;20032;-72
2020/12/31 11:24:51;;;;;;;10.52;6.43;;;2.00;99.90;;;;;;5012103;28;20029;-77
2020/12/31 11:27:17;;;;;;;9.52;6.15;;;2.00;99.90;;;;;;5013096;28;20221;-77
2020/12/31 11:29:42;;;;;;;10.52;6.10;;;2.30;99.90;;;;;;5012771;28;20587;-77
2020/12/31 11:32:08;;;;;;;10.32;6.43;;;2.00;99.90;;;;;;5012812;28;20033;-75
2020/12/31 11:34:34;;;;;;;10.00;6.03;;;1.70;99.90;;;;;;5012773;28;20437;-75
2020/12/31 11:37:02;;;;;;;8.65;5.45;;;1.40;99.90;;;;;;5012761;28;20435;-75
2020/12/31 11:39:28;;;;;;;12.05;6.55;;;1.20;99.90;;;;;;5012899;28;20030;-75
2020/12/31 11:41:58;;;;;;;12.02;6.78;;;1.00;99.90;;;;;;5010888;28;20100;-76
2020/12/31 11:44:24;;;;;;;9.87;5.97;;;0.90;99.90;;;;;;5012355;28;20037;-76
2020/12/31 11:46:50;;;;;;;11.40;6.53;;;0.70;99.90;;;;;;5012655;28;20060;-75
2020/12/31 11:49:17;;;;;;;10.38;5.93;;;0.60;99.90;;;;;;5012388;28;20030;-75
2020/12/31 11:51:49;;;;;;;11.73;6.15;;;0.50;99.90;;;;;;5012328;28;20022;-76
2020/12/31 11:54:15;;;;;;;11.65;6.32;;;0.40;99.90;;;;;;5012516;28;20026;-76
2020/12/31 11:56:40;;;;;;;10.05;6.22;;;0.30;99.90;;;;;;5011913;28;20042;-76
2020/12/31 11:59:06;;;;;;;10.70;6.32;;;0.20;99.90;;;;;;5012236;28;20057;-75
2020/12/31 12:01:32;;;;;;;11.25;6.30;;;0.20;99.90;;;;;;5012008;28;20025;-75
2020/12/31 12:03:58;;;;;;;8.52;5.60;;;0.10;99.90;;;;;;5011608;28;20321;-74
2020/12/31 12:06:24;;;;;;;10.05;6.22;;;0.10;99.90;;;;;;5011695;28;20085;-73
2020/12/31 12:08:50;;;;;;;9.60;5.97;;;0.10;99.90;;;;;;5011496;28;20049;-74
2020/12/31 12:11:16;;;;;;;12.07;6.63;;;0.00;99.90;;;;;;5010763;28;20034;-75
2020/12/31 12:13:42;;;;;;;10.38;6.18;;;0.10;99.90;;;;;;5009120;28;20481;-75
2020/12/31 12:16:07;;;;;;;11.13;5.88;;;0.00;99.90;;;;;;5011783;28;20030;-74
2020/12/31 12:18:33;;;;;;;10.82;6.20;;;0.00;99.90;;;;;;5012160;28;20516;-74
2020/12/31 12:20:59;;;;;;;11.75;6.28;;;0.00;99.90;;;;;;5012060;28;20037;-74
2020/12/31 12:23:25;;;;;;;11.75;6.43;;;0.00;99.90;;;;;;5010902;28;20029;-74
2020/12/31 12:25:50;;;;;;;11.55;7.18;;;0.00;99.90;;;;;;5011963;28;20029;-74
2020/12/31 12:28:16;;;;;;;11.23;7.25;;;-0.10;99.90;;;;;;5012243;28;20022;-74
2020/12/31 12:30:42;;;;;;;13.27;6.97;;;-0.10;99.90;;;;;;5012089;28;20080;-74
2020/12/31 12:33:08;;;;;;;9.85;5.97;;;-0.10;99.90;;;;;;5011860;28;20026;-73
2020/12/31 12:35:34;;;;;;;13.38;6.60;;;-0.10;99.90;;;;;;5011364;28;20038;-74
2020/12/31 12:38:01;;;;;;;10.45;6.20;;;-0.10;99.90;;;;;;5011686;28;20096;-74
2020/12/31 12:40:27;;;;;;;12.13;7.50;;;-0.10;99.90;;;;;;5011598;28;20022;-74
2020/12/31 12:42:53;;;;;;;13.05;6.82;;;-0.20;99.90;;;;;;5011499;28;20079;-74
2020/12/31 12:45:18;;;;;;;11.95;6.80;;;-0.20;99.90;;;;;;5011732;28;20037;-74
2020/12/31 12:47:44;;;;;;;14.10;7.38;;;-0.10;99.90;;;;;;5008840;28;20100;-74
2020/12/31 12:50:10;;;;;;;11.55;7.00;;;-0.10;99.90;;;;;;5011476;28;20041;-74
2020/12/31 12:52:37;;;;;;;12.50;7.13;;;-0.10;99.90;;;;;;5011593;28;20030;-74
2020/12/31 12:55:05;;;;;;;12.40;6.80;;;-0.20;99.90;;;;;;5011039;28;20498;-74
2020/12/31 12:57:31;;;;;;;11.25;7.15;;;-0.20;99.90;;;;;;5011563;28;20034;-74
2020/12/31 12:59:56;;;;;;;11.05;6.40;;;-0.20;99.90;;;;;;5009950;28;20473;-75
2020/12/31 13:02:22;;;;;;;13.15;6.97;;;-0.20;99.90;;;;;;5010070;28;20031;-74
2020/12/31 13:04:48;;;;;;;13.07;7.65;;;-0.20;99.90;;;;;;5011278;28;20022;-74
2020/12/31 13:07:13;;;;;;;13.15;7.28;;;-0.20;99.90;;;;;;5011209;28;20026;-74
2020/12/31 13:09:39;;;;;;;10.77;7.20;;;-0.20;99.90;;;;;;5014516;28;20115;-74
2020/12/31 13:12:05;;;;;;;13.85;7.38;;;-0.20;99.90;;;;;;5015180;28;20604;-74
2020/12/31 13:14:31;;;;;;;12.90;7.38;;;-0.20;99.90;;;;;;5015599;28;20434;-74
2020/12/31 13:16:57;;;;;;;12.95;6.90;;;-0.10;99.90;;;;;;5014905;28;20536;-74
2020/12/31 13:19:26;;;;;;;12.95;7.15;;;-0.20;99.90;;;;;;5013733;28;20120;-73
2020/12/31 13:21:58;;;;;;;13.35;7.25;;;-0.10;99.90;;;;;;5015121;28;20037;-74
2020/12/31 13:24:25;;;;;;;10.80;6.65;;;-0.10;99.90;;;;;;5015345;28;20030;-74
2020/12/31 13:26:52;;;;;;;15.20;7.15;;;-0.10;99.90;;;;;;5015021;28;20465;-74
2020/12/31 13:29:18;;;;;;;14.80;6.93;;;-0.20;99.90;;;;;;5014900;28;20056;-74
2020/12/31 13:31:44;;;;;;;13.20;5.93;;;-0.20;99.90;;;;;;5014430;28;20033;-75
2020/12/31 13:34:10;;;;;;;12.10;7.07;;;-0.10;99.90;;;;;;5014779;28;20493;-74
2020/12/31 13:36:36;;;;;;;12.90;6.95;;;0.70;99.90;;;;;;5014779;28;20073;-74
2020/12/31 13:39:03;;;;;;;13.15;7.70;;;0.80;99.90;;;;;;5014746;28;20080;-74
2020/12/31 13:41:29;;;;;;;10.20;6.28;;;0.60;99.90;;;;;;5014756;28;20034;-74
2020/12/31 13:43:54;;;;;;;14.10;7.28;;;0.40;99.90;;;;;;5014685;28;20307;-74
2020/12/31 13:46:20;;;;;;;11.98;7.47;;;0.80;99.90;;;;;;5014900;28;20030;-78
2020/12/31 13:48:46;;;;;;;11.35;6.40;;;0.90;99.90;;;;;;5014690;28;20057;-77
2020/12/31 13:51:16;;;;;;;11.23;6.85;;;0.80;99.90;;;;;;5014446;28;20367;-75
2020/12/31 13:53:42;;;;;;;12.10;7.53;;;0.90;99.90;;;;;;5014856;28;20022;-74
2020/12/31 13:56:09;;;;;;;14.13;7.72;;;1.00;99.90;;;;;;5014548;28;20034;-74
2020/12/31 13:58:34;;;;;;;13.20;8.07;;;0.90;99.90;;;;;;5014536;28;20014;-73
2020/12/31 14:01:00;;;;;;;13.60;7.13;;;0.80;99.90;;;;;;5014411;28;20048;-73
2020/12/31 14:03:27;;;;;;;14.30;8.10;;;0.70;99.90;;;;;;5014604;28;20026;-73
2020/12/31 14:05:57;;;;;;;11.80;7.55;;;0.80;99.90;;;;;;5014160;28;20025;-73
2020/12/31 14:08:22;;;;;;;12.45;7.18;;;0.70;99.90;;;;;;5014103;28;20037;-73
2020/12/31 14:10:50;;;;;;;11.70;6.97;;;0.70;99.90;;;;;;5014293;28;20030;-74
2020/12/31 14:13:15;;;;;;;15.80;7.97;;;0.60;99.90;;;;;;5010151;28;20034;-74
2020/12/31 14:15:42;;;;;;;13.70;7.43;;;0.60;99.90;;;;;;5013461;28;20030;-74
2020/12/31 14:18:08;;;;;;;14.13;8.07;;;0.60;99.90;;;;;;5013607;28;20030;-74
2020/12/31 14:20:34;;;;;;;13.30;7.50;;;0.60;99.90;;;;;;5013793;28;20044;-75
2020/12/31 14:23:00;;;;;;;13.82;7.65;;;0.60;99.90;;;;;;5013942;28;20378;-81
2020/12/31 14:25:26;;;;;;;13.95;7.93;;;0.50;99.90;;;;;;5013971;28;20036;-79
2020/12/31 14:27:52;;;;;;;12.88;8.00;;;1.10;99.90;;;;;;5013304;28;20022;-76
2020/12/31 14:30:18;;;;;;;14.60;8.07;;;1.20;99.90;;;;;;5013325;28;20033;-80
2020/12/31 14:32:43;;;;;;;14.02;8.05;;;1.20;99.90;;;;;;5013816;28;20028;-76
2020/12/31 14:35:09;;;;;;;17.48;9.38;;;1.00;99.90;;;;;;5013689;28;20548;-74
2020/12/31 14:37:35;;;;;;;14.25;7.82;;;0.80;99.90;;;;;;5013847;28;20029;-74
2020/12/31 14:40:01;;;;;;;18.80;8.63;;;0.70;99.90;;;;;;5013738;28;20021;-74
2020/12/31 14:42:27;;;;;;;15.65;8.77;;;0.60;99.90;;;;;;5012588;28;20065;-75
2020/12/31 14:44:52;;;;;;;13.50;8.07;;;0.50;99.90;;;;;;5013519;28;20025;-75
2020/12/31 14:47:18;;;;;;;16.80;9.60;;;3.00;99.90;;;;;;5013501;28;20025;-74
2020/12/31 14:49:44;;;;;;;19.52;10.18;;;3.60;99.90;;;;;;5013445;28;20457;-76
2020/12/31 14:52:10;;;;;;;19.75;9.40;;;3.40;99.90;;;;;;5012578;28;20369;-75
2020/12/31 14:54:35;;;;;;;18.80;8.80;;;2.80;99.90;;;;;;5013069;28;20469;-75
2020/12/31 14:57:01;;;;;;;13.65;7.32;;;2.40;99.90;;;;;;5012624;28;20038;-76
2020/12/31 14:59:27;;;;;;;11.93;7.47;;;2.00;99.90;;;;;;5013613;28;20021;-76
2020/12/31 15:01:54;;;;;;;12.98;8.23;;;1.70;99.90;;;;;;5013509;28;20032;-73
2020/12/31 15:04:20;;;;;;;12.18;7.20;;;1.50;99.90;;;;;;5013065;28;20026;-74
2020/12/31 15:06:46;;;;;;;13.38;8.32;;;1.30;99.90;;;;;;5012988;28;20108;-73
2020/12/31 15:09:12;;;;;;;14.55;8.40;;;1.20;99.90;;;;;;5011811;28;20465;-73
2020/12/31 15:11:38;;;;;;;10.93;6.50;;;1.10;99.90;;;;;;5011955;28;20033;-76
2020/12/31 15:14:05;;;;;;;10.73;7.15;;;2.50;99.90;;;;;;5013031;28;20025;-73
2020/12/31 15:16:31;;;;;;;24.95;12.73;;;3.20;99.90;;;;;;5013226;28;20041;-72
2020/12/31 15:18:57;;;;;;;9.82;5.63;;;3.30;99.90;;;;;;5012579;28;20064;-81
2020/12/31 15:21:23;;;;;;;15.00;9.48;;;3.20;99.90;;;;;;5011424;28;20029;-73
2020/12/31 15:23:49;;;;;;;22.95;12.07;;;4.20;99.90;;;;;;5012774;28;20030;-73
2020/12/31 15:26:15;;;;;;;26.25;15.52;;;3.80;99.90;;;;;;5012673;28;20099;-73
2020/12/31 15:28:40;;;;;;;26.80;15.50;;;3.30;99.90;;;;;;5006222;28;20066;-73
2020/12/31 15:31:06;;;;;;;20.80;12.25;;;2.80;99.90;;;;;;5000626;28;20084;-72
2020/12/31 15:33:32;;;;;;;17.88;10.23;;;2.50;99.90;;;;;;5011926;28;20030;-73
2020/12/31 15:35:58;;;;;;;16.08;9.00;;;2.20;99.90;;;;;;5012726;28;20401;-72
2020/12/31 15:38:24;;;;;;;17.92;9.55;;;2.00;99.90;;;;;;5012699;28;20102;-72
2020/12/31 15:40:50;;;;;;;13.85;8.55;;;1.90;99.90;;;;;;5012962;28;20030;-72
2020/12/31 15:43:16;;;;;;;13.90;8.20;;;1.90;99.90;;;;;;5012760;28;20041;-73
2020/12/31 15:45:41;;;;;;;15.43;7.55;;;1.90;99.90;;;;;;5012822;28;20474;-72
2020/12/31 15:48:07;;;;;;;14.68;8.55;;;1.80;99.90;;;;;;5012498;28;20030;-72
2020/12/31 15:50:33;;;;;;;15.48;9.20;;;1.70;99.90;;;;;;5012595;28;20021;-72
2020/12/31 15:52:59;;;;;;;15.65;8.80;;;1.60;99.90;;;;;;5012444;28;20605;-74
2020/12/31 15:55:25;;;;;;;14.02;7.60;;;1.50;99.90;;;;;;5011393;28;20550;-72
2020/12/31 15:57:51;;;;;;;14.10;8.00;;;1.80;99.90;;;;;;5012347;28;20484;-72
2020/12/31 16:00:18;;;;;;;14.02;8.05;;;1.80;99.90;;;;;;5012358;28;20384;-73
2020/12/31 16:02:45;;;;;;;14.55;8.27;;;1.60;99.90;;;;;;5011012;28;20057;-72
2020/12/31 16:05:13;;;;;;;13.40;8.02;;;1.50;99.90;;;;;;5012493;28;20030;-73
2020/12/31 16:07:40;;;;;;;14.32;8.20;;;1.50;99.90;;;;;;5012483;28;20546;-72
2020/12/31 16:10:12;;;;;;;13.52;8.52;;;1.40;99.90;;;;;;5012154;28;20030;-73
2020/12/31 16:12:39;;;;;;;16.67;8.25;;;1.40;99.90;;;;;;5012254;28;20033;-73
2020/12/31 16:15:11;;;;;;;15.43;8.82;;;1.20;99.90;;;;;;5012110;28;20034;-73
2020/12/31 16:17:38;;;;;;;15.13;8.90;;;1.20;99.90;;;;;;5012058;28;20112;-72
2020/12/31 16:20:06;;;;;;;13.18;8.38;;;1.20;99.90;;;;;;5011800;28;20054;-72
2020/12/31 16:22:32;;;;;;;16.55;10.15;;;1.20;99.90;;;;;;5012098;28;20021;-73
2020/12/31 16:24:58;;;;;;;16.88;9.98;;;1.20;99.90;;;;;;5012075;28;20029;-72
2020/12/31 16:27:25;;;;;;;15.95;9.95;;;1.20;99.90;;;;;;5011886;28;20394;-68
2020/12/31 16:29:55;;;;;;;18.33;10.52;;;1.10;99.90;;;;;;5012430;28;20037;-69
2020/12/31 16:32:21;;;;;;;19.25;10.48;;;1.10;99.90;;;;;;5043679;28;20026;-69
2020/12/31 16:34:47;;;;;;;14.52;8.90;;;1.10;99.90;;;;;;5012174;28;20032;-69
2020/12/31 16:37:13;;;;;;;16.33;9.23;;;1.10;99.90;;;;;;5011828;28;20034;-71
2020/12/31 16:39:42;;;;;;;13.38;7.90;;;1.10;99.90;;;;;;5012118;28;20026;-70
2020/12/31 16:42:08;;;;;;;15.98;8.73;;;1.70;99.90;;;;;;5012072;28;20113;-69
2020/12/31 16:44:34;;;;;;;14.73;9.20;;;1.80;99.90;;;;;;5015956;28;20026;-68
2020/12/31 16:47:00;;;;;;;15.40;8.60;;;1.70;99.90;;;;;;5015822;28;20048;-68
2020/12/31 16:49:26;;;;;;;16.20;8.90;;;1.50;99.90;;;;;;5015757;28;20025;-68
2020/12/31 16:51:52;;;;;;;15.65;8.82;;;1.40;99.90;;;;;;5015729;28;20076;-68
2020/12/31 16:54:22;;;;;;;17.17;10.60;;;1.30;99.90;;;;;;5015621;28;20547;-68
2020/12/31 16:56:52;;;;;;;14.87;9.20;;;1.20;99.90;;;;;;5015458;28;20037;-68
2020/12/31 16:59:18;;;;;;;15.27;9.00;;;1.10;99.90;;;;;;5015418;28;20030;-68
2020/12/31 17:01:44;;;;;;;15.80;8.80;;;1.10;99.90;;;;;;5015490;28;20564;-68
2020/12/31 17:04:10;;;;;;;18.75;9.73;;;1.10;99.90;;;;;;5015483;28;20109;-68
2020/12/31 17:06:35;;;;;;;16.50;9.95;;;1.10;99.90;;;;;;5015494;28;20026;-68
2020/12/31 17:09:01;;;;;;;21.25;11.60;;;1.00;99.90;;;;;;5015653;28;20026;-68
2020/12/31 17:11:30;;;;;;;21.45;10.52;;;1.00;99.90;;;;;;5015256;28;20041;-68
2020/12/31 17:13:56;;;;;;;16.50;9.35;;;1.00;99.90;;;;;;5015386;28;20616;-68
2020/12/31 17:16:33;;;;;;;13.77;8.20;;;1.00;99.90;;;;;;5014987;28;20038;-69
2020/12/31 17:19:03;;;;;;;16.15;9.23;;;1.30;99.90;;;;;;5014879;28;20037;-70
2020/12/31 17:21:28;;;;;;;16.15;9.98;;;1.40;99.90;;;;;;5014864;28;20390;-69
2020/12/31 17:23:55;;;;;;;21.27;10.23;;;1.40;99.90;;;;;;5015144;28;20129;-70
2020/12/31 17:26:22;;;;;;;23.08;9.88;;;1.30;99.90;;;;;;5014909;28;20026;-71
2020/12/31 17:28:50;;;;;;;32.25;17.45;;;1.20;99.90;;;;;;5015025;28;20548;-70
2020/12/31 17:31:16;;;;;;;33.08;16.08;;;1.20;99.90;;;;;;5015050;28;20477;-70
2020/12/31 17:33:42;;;;;;;25.17;13.10;;;1.10;99.90;;;;;;5015015;28;20041;-70
2020/12/31 17:36:10;;;;;;;28.52;14.07;;;1.30;99.90;;;;;;5014633;28;20481;-70
2020/12/31 17:38:39;;;;;;;22.05;10.68;;;1.40;99.90;;;;;;5014995;28;20025;-69
2020/12/31 17:41:07;;;;;;;15.95;8.32;;;1.40;99.90;;;;;;5013493;28;20024;-70
2020/12/31 17:43:33;;;;;;;13.75;8.63;;;1.30;99.90;;;;;;5014832;28;20037;-70
2020/12/31 17:45:59;;;;;;;14.68;8.43;;;1.30;99.90;;;;;;5014752;28;20445;-70
2020/12/31 17:48:25;;;;;;;15.05;8.32;;;1.50;99.90;;;;;;5013232;28;20057;-69
2020/12/31 17:50:51;;;;;;;17.35;9.40;;;1.60;99.90;;;;;;5014640;28;20056;-69
2020/12/31 17:53:18;;;;;;;16.33;8.88;;;1.60;99.90;;;;;;5014341;28;20026;-69
2020/12/31 17:55:44;;;;;;;15.75;8.70;;;1.50;99.90;;;;;;5013852;28;20112;-71
2020/12/31 17:58:09;;;;;;;14.27;8.43;;;1.40;99.90;;;;;;5013947;28;20485;-73
2020/12/31 18:00:35;;;;;;;12.85;8.18;;;1.30;99.90;;;;;;5013298;28;20096;-72
2020/12/31 18:03:01;;;;;;;15.15;9.38;;;3.90;99.90;;;;;;5014260;28;20268;-72
2020/12/31 18:05:26;;;;;;;13.20;8.30;;;4.00;99.90;;;;;;5014043;28;20053;-72
2020/12/31 18:07:52;;;;;;;17.48;8.07;;;3.50;99.90;;;;;;5012879;28;20042;-73